createdAt,value
2018-08-09T00:00:14.017Z,23.50
2018-08-09T00:01:18.031Z,23.50
2018-08-09T00:02:22.106Z,23.50
2018-08-09T00:03:26.119Z,23.50
2018-08-09T00:04:30.253Z,23.60
2018-08-09T00:05:34.361Z,23.60
2018-08-09T00:06:38.406Z,23.50
2018-08-09T00:07:42.430Z,23.40
2018-08-09T00:08:46.669Z,23.40
2018-08-09T00:09:50.851Z,23.40
2018-08-09T00:10:54.892Z,23.40
2018-08-09T00:11:58.890Z,23.30
2018-08-09T00:13:02.920Z,23.30
2018-08-09T00:14:07.029Z,23.20
2018-08-09T00:15:11.009Z,23.20
2018-08-09T00:16:14.968Z,23.10
2018-08-09T00:17:18.982Z,22.90
2018-08-09T00:18:22.988Z,22.90
2018-08-09T00:19:27.009Z,23.00
2018-08-09T00:20:31.024Z,22.90
2018-08-09T00:21:35.501Z,22.80
2018-08-09T00:22:39.495Z,22.80
2018-08-09T00:23:43.545Z,22.90
2018-08-09T00:24:47.578Z,22.80
2018-08-09T00:25:51.769Z,22.80
2018-08-09T00:26:55.777Z,22.80
2018-08-09T00:27:59.776Z,22.80
2018-08-09T00:29:03.769Z,22.70
2018-08-09T00:30:08.079Z,22.70
2018-08-09T00:31:12.073Z,22.60
2018-08-09T00:32:16.092Z,22.60
2018-08-09T00:33:20.110Z,22.70
2018-08-09T00:34:24.101Z,22.70
2018-08-09T00:35:28.121Z,22.70
2018-08-09T00:36:32.106Z,22.80
2018-08-09T00:37:36.165Z,22.80
2018-08-09T00:38:40.249Z,22.90
2018-08-09T00:39:44.271Z,22.90
2018-08-09T00:40:48.277Z,22.90
2018-08-09T00:41:52.235Z,23.00
2018-08-09T00:42:56.222Z,23.00
2018-08-09T00:44:00.217Z,23.00
2018-08-09T00:45:05.281Z,23.00
2018-08-09T00:46:09.418Z,22.90
2018-08-09T00:47:13.410Z,22.90
2018-08-09T00:48:17.414Z,22.80
2018-08-09T00:49:21.389Z,22.70
2018-08-09T00:50:25.383Z,22.60
2018-08-09T00:51:29.388Z,22.50
2018-08-09T00:52:33.487Z,22.40
2018-08-09T00:53:37.482Z,22.30
2018-08-09T00:54:41.473Z,22.30
2018-08-09T00:55:45.493Z,22.40
2018-08-09T00:56:49.492Z,22.40
2018-08-09T00:57:53.493Z,22.40
2018-08-09T00:58:57.469Z,22.50
2018-08-09T01:00:01.482Z,22.60
2018-08-09T01:01:05.471Z,22.60
2018-08-09T01:02:09.446Z,22.80
2018-08-09T01:03:13.420Z,22.80
2018-08-09T01:04:17.445Z,22.80
2018-08-09T01:05:21.533Z,22.90
2018-08-09T01:06:25.541Z,22.90
2018-08-09T01:07:29.523Z,22.90
2018-08-09T01:08:33.541Z,23.00
2018-08-09T01:09:37.543Z,23.00
2018-08-09T01:10:41.537Z,23.00
2018-08-09T01:11:45.652Z,23.00
2018-08-09T01:12:49.666Z,22.90
2018-08-09T01:13:53.685Z,22.80
2018-08-09T01:14:57.744Z,22.70
2018-08-09T01:16:01.740Z,22.70
2018-08-09T01:17:05.749Z,22.60
2018-08-09T01:18:10.540Z,22.60
2018-08-09T01:19:14.543Z,22.70
2018-08-09T01:20:18.552Z,22.70
2018-08-09T01:21:22.549Z,22.70
2018-08-09T01:22:26.554Z,22.60
2018-08-09T01:23:30.542Z,22.50
2018-08-09T01:24:34.676Z,22.50
2018-08-09T01:25:38.771Z,22.60
2018-08-09T01:26:42.793Z,22.60
2018-08-09T01:27:46.816Z,22.60
2018-08-09T01:28:50.806Z,22.60
2018-08-09T01:29:54.791Z,22.50
2018-08-09T01:30:58.779Z,22.50
2018-08-09T01:32:02.839Z,22.50
2018-08-09T01:33:07.087Z,22.50
2018-08-09T01:34:11.412Z,22.50
2018-08-09T01:35:15.537Z,22.60
2018-08-09T01:36:19.615Z,22.70
2018-08-09T01:37:23.615Z,22.70
2018-08-09T01:38:27.664Z,22.80
2018-08-09T01:39:31.682Z,22.80
2018-08-09T01:40:35.687Z,22.90
2018-08-09T01:41:44.581Z,22.90
2018-08-09T01:43:00.271Z,22.90
2018-08-09T01:44:05.478Z,22.80
2018-08-09T01:45:09.465Z,22.50
2018-08-09T01:46:13.486Z,22.40
2018-08-09T01:47:17.461Z,22.30
2018-08-09T01:48:21.485Z,22.40
2018-08-09T01:49:25.507Z,22.20
2018-08-09T01:50:29.552Z,22.20
2018-08-09T01:51:33.541Z,22.20
2018-08-09T01:52:37.544Z,22.20
2018-08-09T01:53:41.551Z,22.20
2018-08-09T01:54:45.533Z,22.20
2018-08-09T01:55:49.527Z,22.30
2018-08-09T01:56:53.551Z,22.30
2018-08-09T01:57:57.631Z,22.30
2018-08-09T01:59:01.639Z,22.30
2018-08-09T02:00:06.234Z,22.30
2018-08-09T02:01:10.510Z,22.20
2018-08-09T02:02:14.517Z,22.20
2018-08-09T02:03:18.586Z,22.30
2018-08-09T02:04:22.629Z,22.30
2018-08-09T02:05:26.598Z,22.30
2018-08-09T02:06:30.660Z,22.20
2018-08-09T02:07:34.711Z,22.20
2018-08-09T02:08:38.735Z,22.20
2018-08-09T02:09:42.785Z,22.20
2018-08-09T02:10:46.768Z,22.20
2018-08-09T02:11:50.789Z,22.20
2018-08-09T02:12:54.799Z,22.30
2018-08-09T02:13:59.006Z,22.30
2018-08-09T02:15:03.031Z,22.30
2018-08-09T02:16:07.280Z,22.30
2018-08-09T02:17:11.284Z,22.40
2018-08-09T02:18:15.273Z,22.40
2018-08-09T02:19:19.297Z,22.40
2018-08-09T02:20:23.317Z,22.30
2018-08-09T02:21:27.346Z,22.30
2018-08-09T02:22:31.353Z,22.20
2018-08-09T02:23:35.335Z,22.00
2018-08-09T02:24:39.308Z,22.00
2018-08-09T02:25:43.289Z,22.00
2018-08-09T02:26:47.311Z,22.00
2018-08-09T02:27:51.330Z,21.80
2018-08-09T02:28:55.337Z,21.60
2018-08-09T02:29:59.348Z,21.60
2018-08-09T02:31:03.326Z,21.60
2018-08-09T02:32:07.296Z,21.70
2018-08-09T02:33:11.335Z,21.80
2018-08-09T02:34:15.510Z,21.80
2018-08-09T02:35:19.495Z,21.80
2018-08-09T02:36:23.530Z,21.90
2018-08-09T02:37:27.499Z,21.90
2018-08-09T02:38:31.529Z,21.90
2018-08-09T02:39:35.560Z,22.00
2018-08-09T02:40:39.574Z,22.10
2018-08-09T02:41:43.548Z,22.20
2018-08-09T02:42:47.564Z,22.30
2018-08-09T02:43:51.587Z,22.30
2018-08-09T02:44:55.583Z,22.30
2018-08-09T02:45:59.611Z,22.30
2018-08-09T02:47:03.811Z,22.40
2018-08-09T02:48:07.878Z,22.30
2018-08-09T02:49:11.913Z,22.30
2018-08-09T02:50:15.890Z,22.30
2018-08-09T02:51:19.897Z,22.30
2018-08-09T02:52:24.032Z,22.20
2018-08-09T02:53:28.014Z,22.20
2018-08-09T02:54:32.083Z,22.20
2018-08-09T02:55:36.137Z,22.20
2018-08-09T02:56:40.147Z,22.10
2018-08-09T02:57:44.166Z,22.10
2018-08-09T02:58:48.190Z,22.20
2018-08-09T02:59:52.205Z,22.10
2018-08-09T03:00:56.289Z,22.00
2018-08-09T03:02:00.317Z,21.80
2018-08-09T03:03:04.525Z,21.70
2018-08-09T03:04:08.721Z,21.60
2018-08-09T03:05:12.715Z,21.50
2018-08-09T03:06:16.832Z,21.50
2018-08-09T03:07:21.462Z,21.60
2018-08-09T03:08:25.558Z,21.70
2018-08-09T03:09:29.561Z,21.80
2018-08-09T03:10:33.556Z,21.80
2018-08-09T03:11:37.577Z,21.80
2018-08-09T03:12:41.666Z,21.80
2018-08-09T03:13:45.663Z,21.80
2018-08-09T03:14:49.677Z,21.90
2018-08-09T03:15:53.741Z,22.00
2018-08-09T03:16:57.752Z,22.00
2018-08-09T03:18:01.874Z,22.00
2018-08-09T03:19:05.945Z,22.00
2018-08-09T03:20:09.978Z,22.00
2018-08-09T03:21:13.974Z,22.10
2018-08-09T03:22:17.986Z,22.10
2018-08-09T03:23:22.081Z,22.00
2018-08-09T03:24:26.131Z,21.90
2018-08-09T03:25:30.113Z,21.80
2018-08-09T03:26:34.121Z,21.80
2018-08-09T03:27:38.152Z,21.70
2018-08-09T03:28:42.153Z,21.60
2018-08-09T03:29:46.193Z,21.50
2018-08-09T03:30:50.221Z,21.50
2018-08-09T03:31:54.494Z,21.50
2018-08-09T03:32:58.507Z,21.40
2018-08-09T03:34:02.590Z,21.40
2018-08-09T03:35:06.651Z,21.50
2018-08-09T03:36:10.622Z,21.50
2018-08-09T03:37:14.646Z,21.60
2018-08-09T03:38:18.657Z,21.70
2018-08-09T03:39:22.699Z,21.70
2018-08-09T03:40:26.734Z,21.80
2018-08-09T03:41:30.836Z,21.90
2018-08-09T03:42:34.955Z,22.00
2018-08-09T03:43:38.932Z,22.10
2018-08-09T03:44:42.945Z,22.10
2018-08-09T03:45:46.959Z,22.10
2018-08-09T03:46:50.981Z,22.20
2018-08-09T03:47:55.152Z,22.20
2018-08-09T03:48:59.177Z,22.20
2018-08-09T03:50:03.195Z,22.10
2018-08-09T03:51:07.296Z,22.10
2018-08-09T03:52:11.388Z,22.00
2018-08-09T03:53:15.407Z,22.00
2018-08-09T03:54:19.437Z,22.00
2018-08-09T03:55:23.488Z,22.00
2018-08-09T03:56:28.124Z,22.10
2018-08-09T03:57:32.134Z,22.10
2018-08-09T03:58:36.151Z,22.20
2018-08-09T03:59:40.283Z,22.10
2018-08-09T04:00:44.324Z,22.10
2018-08-09T04:01:48.328Z,22.10
2018-08-09T04:02:52.364Z,22.10
2018-08-09T04:03:56.419Z,22.10
2018-08-09T04:05:00.618Z,22.10
2018-08-09T04:06:04.885Z,22.10
2018-08-09T04:07:08.930Z,22.20
2018-08-09T04:08:12.904Z,22.20
2018-08-09T04:09:16.928Z,22.10
2018-08-09T04:10:20.913Z,22.10
2018-08-09T04:11:24.920Z,22.10
2018-08-09T04:12:28.911Z,22.00
2018-08-09T04:13:32.994Z,22.00
2018-08-09T04:14:37.008Z,22.00
2018-08-09T04:15:41.033Z,22.00
2018-08-09T04:16:45.050Z,22.00
2018-08-09T04:17:49.136Z,22.00
2018-08-09T04:18:53.916Z,22.00
2018-08-09T04:19:57.953Z,22.00
2018-08-09T04:21:01.981Z,22.00
2018-08-09T04:22:05.990Z,22.10
2018-08-09T04:23:10.072Z,22.00
2018-08-09T04:24:14.196Z,22.00
2018-08-09T04:25:18.440Z,22.00
2018-08-09T04:26:22.658Z,22.00
2018-08-09T04:27:26.643Z,22.00
2018-08-09T04:28:30.656Z,22.00
2018-08-09T04:29:34.720Z,22.00
2018-08-09T04:30:38.771Z,21.90
2018-08-09T04:31:42.850Z,22.00
2018-08-09T04:32:46.920Z,22.10
2018-08-09T04:33:50.923Z,22.20
2018-08-09T04:34:54.975Z,22.20
2018-08-09T04:35:59.064Z,22.20
2018-08-09T04:37:03.090Z,22.20
2018-08-09T04:38:07.334Z,22.20
2018-08-09T04:39:11.604Z,22.10
2018-08-09T04:40:15.598Z,22.10
2018-08-09T04:41:19.641Z,22.00
2018-08-09T04:42:23.635Z,22.00
2018-08-09T04:43:27.674Z,22.00
2018-08-09T04:44:31.755Z,22.00
2018-08-09T04:45:35.763Z,22.00
2018-08-09T04:46:39.755Z,22.00
2018-08-09T04:47:43.770Z,22.00
2018-08-09T04:48:47.839Z,21.90
2018-08-09T04:49:51.869Z,21.90
2018-08-09T04:50:55.838Z,21.90
2018-08-09T04:51:59.889Z,21.90
2018-08-09T04:53:03.902Z,21.90
2018-08-09T04:54:07.931Z,21.90
2018-08-09T04:55:11.957Z,22.00
2018-08-09T04:56:15.953Z,21.90
2018-08-09T04:57:19.924Z,21.90
2018-08-09T04:58:24.622Z,21.90
2018-08-09T04:59:29.340Z,21.90
2018-08-09T05:00:33.359Z,21.90
2018-08-09T05:01:37.345Z,21.80
2018-08-09T05:02:41.777Z,21.90
2018-08-09T05:03:46.673Z,21.90
2018-08-09T05:04:50.678Z,21.90
2018-08-09T05:05:54.797Z,21.90
2018-08-09T05:06:58.781Z,21.90
2018-08-09T05:08:02.785Z,21.90
2018-08-09T05:09:08.572Z,21.80
2018-08-09T05:10:12.850Z,21.80
2018-08-09T05:11:17.901Z,21.90
2018-08-09T05:12:22.001Z,21.90
2018-08-09T05:13:25.999Z,21.90
2018-08-09T05:14:30.133Z,21.90
2018-08-09T05:15:34.162Z,21.90
2018-08-09T05:16:38.448Z,22.00
2018-08-09T05:17:42.462Z,22.10
2018-08-09T05:18:46.461Z,22.00
2018-08-09T05:19:50.511Z,22.00
2018-08-09T05:20:54.578Z,22.10
2018-08-09T05:21:58.666Z,22.10
2018-08-09T05:23:02.701Z,22.10
2018-08-09T05:24:06.755Z,22.20
2018-08-09T05:25:10.822Z,22.20
2018-08-09T05:26:14.876Z,22.20
2018-08-09T05:27:18.922Z,22.30
2018-08-09T05:28:22.931Z,22.40
2018-08-09T05:29:26.961Z,22.40
2018-08-09T05:30:31.000Z,22.50
2018-08-09T05:31:35.017Z,22.50
2018-08-09T05:32:39.018Z,22.50
2018-08-09T05:33:43.033Z,22.50
2018-08-09T05:34:47.567Z,22.60
2018-08-09T05:35:51.647Z,22.60
2018-08-09T05:36:55.675Z,22.60
2018-08-09T05:37:59.709Z,22.60
2018-08-09T05:39:05.808Z,22.60
2018-08-09T05:40:09.793Z,22.60
2018-08-09T05:41:13.919Z,22.70
2018-08-09T05:42:17.898Z,22.80
2018-08-09T05:43:21.875Z,22.80
2018-08-09T05:44:26.762Z,22.80
2018-08-09T05:45:30.837Z,22.80
2018-08-09T05:46:34.847Z,22.80
2018-08-09T05:47:38.883Z,22.80
2018-08-09T05:48:42.906Z,22.90
2018-08-09T05:49:46.969Z,22.90
2018-08-09T05:50:51.083Z,22.90
2018-08-09T05:51:55.111Z,22.90
2018-08-09T05:52:59.309Z,22.90
2018-08-09T05:54:03.536Z,22.90
2018-08-09T05:55:07.907Z,22.90
2018-08-09T05:56:11.903Z,22.90
2018-08-09T05:57:15.934Z,22.90
2018-08-09T05:58:19.944Z,22.90
2018-08-09T05:59:24.198Z,22.90
2018-08-09T06:00:28.694Z,22.90
2018-08-09T06:01:32.800Z,22.90
2018-08-09T06:02:37.120Z,22.90
2018-08-09T06:03:41.249Z,23.00
2018-08-09T06:04:45.297Z,23.00
2018-08-09T06:05:49.456Z,23.00
2018-08-09T06:06:53.481Z,23.00
2018-08-09T06:07:57.499Z,23.00
2018-08-09T06:09:01.735Z,23.00
2018-08-09T06:10:07.004Z,23.00
2018-08-09T06:11:11.219Z,23.00
2018-08-09T06:12:15.317Z,23.00
2018-08-09T06:13:19.661Z,23.00
2018-08-09T06:14:23.636Z,23.10
2018-08-09T06:15:27.759Z,23.10
2018-08-09T06:16:31.761Z,23.20
2018-08-09T06:17:35.961Z,23.20
2018-08-09T06:18:39.995Z,23.20
2018-08-09T06:19:44.206Z,23.20
2018-08-09T06:20:48.213Z,23.20
2018-08-09T06:21:52.559Z,23.30
2018-08-09T06:22:57.455Z,23.20
2018-08-09T06:24:02.585Z,23.10
2018-08-09T06:25:07.785Z,23.00
2018-08-09T06:26:11.921Z,22.90
2018-08-09T06:27:16.251Z,22.90
2018-08-09T06:28:20.320Z,23.00
2018-08-09T06:29:24.427Z,23.10
2018-08-09T06:30:28.664Z,23.10
2018-08-09T06:31:32.722Z,23.10
2018-08-09T06:32:37.179Z,23.20
2018-08-09T06:33:41.209Z,23.30
2018-08-09T06:34:45.250Z,23.30
2018-08-09T06:35:49.270Z,23.40
2018-08-09T06:36:53.320Z,23.40
2018-08-09T06:37:57.297Z,23.40
2018-08-09T06:39:01.371Z,23.30
2018-08-09T06:40:09.425Z,23.20
2018-08-09T06:41:13.436Z,23.20
2018-08-09T06:42:17.432Z,23.20
2018-08-09T06:43:21.428Z,23.20
2018-08-09T06:44:25.389Z,23.20
2018-08-09T06:45:29.531Z,23.20
2018-08-09T06:46:33.638Z,23.20
2018-08-09T06:47:37.658Z,23.30
2018-08-09T06:48:41.632Z,23.30
2018-08-09T06:49:45.662Z,23.30
2018-08-09T06:50:49.650Z,23.40
2018-08-09T06:51:53.718Z,23.50
2018-08-09T06:52:58.004Z,23.50
2018-08-09T06:54:02.081Z,23.40
2018-08-09T06:55:06.273Z,23.40
2018-08-09T06:56:10.356Z,23.40
2018-08-09T06:57:14.525Z,23.40
2018-08-09T06:58:18.774Z,23.40
2018-08-09T06:59:22.853Z,23.50
2018-08-09T07:00:26.939Z,23.60
2018-08-09T07:01:31.048Z,23.60
2018-08-09T07:02:35.030Z,23.60
2018-08-09T07:03:39.269Z,23.60
2018-08-09T07:04:43.498Z,23.60
2018-08-09T07:05:47.560Z,23.60
2018-08-09T07:06:51.560Z,23.70
2018-08-09T07:07:55.579Z,23.70
2018-08-09T07:08:59.773Z,23.70
2018-08-09T07:10:03.963Z,23.80
2018-08-09T07:11:07.935Z,23.80
2018-08-09T07:12:12.168Z,23.80
2018-08-09T07:13:16.258Z,23.90
2018-08-09T07:14:20.273Z,23.90
2018-08-09T07:15:24.279Z,23.90
2018-08-09T07:16:28.860Z,23.90
2018-08-09T07:17:33.038Z,24.00
2018-08-09T07:18:37.390Z,24.00
2018-08-09T07:19:42.225Z,24.10
2018-08-09T07:20:46.311Z,24.10
2018-08-09T07:21:50.365Z,24.10
2018-08-09T07:22:54.363Z,24.10
2018-08-09T07:23:58.692Z,24.10
2018-08-09T07:25:02.752Z,24.20
2018-08-09T07:26:07.864Z,24.20
2018-08-09T07:27:11.851Z,24.20
2018-08-09T07:28:15.952Z,24.20
2018-08-09T07:29:19.977Z,24.20
2018-08-09T07:30:24.000Z,24.30
2018-08-09T07:31:28.528Z,24.30
2018-08-09T07:32:32.585Z,24.30
2018-08-09T07:33:36.594Z,24.30
2018-08-09T07:34:40.628Z,24.40
2018-08-09T07:35:44.641Z,24.40
2018-08-09T07:36:48.685Z,24.40
2018-08-09T07:37:52.658Z,24.40
2018-08-09T07:38:56.678Z,24.40
2018-08-09T07:40:00.788Z,24.40
2018-08-09T07:41:04.755Z,24.40
2018-08-09T07:42:08.785Z,24.50
2018-08-09T07:43:12.754Z,24.50
2018-08-09T07:44:16.858Z,24.60
2018-08-09T07:45:20.888Z,24.60
2018-08-09T07:46:24.907Z,24.60
2018-08-09T07:47:28.899Z,24.70
2018-08-09T07:48:32.953Z,24.70
2018-08-09T07:49:39.199Z,24.80
2018-08-09T07:50:43.253Z,24.80
2018-08-09T07:51:47.276Z,24.80
2018-08-09T07:52:53.351Z,24.80
2018-08-09T07:53:57.403Z,24.90
2018-08-09T07:55:01.423Z,25.00
2018-08-09T07:56:05.455Z,25.00
2018-08-09T07:57:09.686Z,25.00
2018-08-09T07:58:13.637Z,25.00
2018-08-09T07:59:17.685Z,25.00
2018-08-09T08:00:21.767Z,25.00
2018-08-09T08:01:25.832Z,25.00
2018-08-09T08:02:29.878Z,25.10
2018-08-09T08:03:33.891Z,25.10
2018-08-09T08:04:37.903Z,25.10
2018-08-09T08:05:42.115Z,25.20
2018-08-09T08:06:46.261Z,25.20
2018-08-09T08:07:50.328Z,25.20
2018-08-09T08:08:54.365Z,25.30
2018-08-09T08:09:58.473Z,25.30
2018-08-09T08:11:04.081Z,25.30
2018-08-09T08:12:08.688Z,25.40
2018-08-09T08:13:12.790Z,25.40
2018-08-09T08:14:16.821Z,25.40
2018-08-09T08:15:21.009Z,25.40
2018-08-09T08:16:25.085Z,25.40
2018-08-09T08:17:29.084Z,25.50
2018-08-09T08:18:33.120Z,25.50
2018-08-09T08:19:37.154Z,25.50
2018-08-09T08:20:41.229Z,25.60
2018-08-09T08:21:45.258Z,25.60
2018-08-09T08:22:49.241Z,25.60
2018-08-09T08:23:54.747Z,25.60
2018-08-09T08:24:59.716Z,25.70
2018-08-09T08:26:03.725Z,25.70
2018-08-09T08:27:07.767Z,25.80
2018-08-09T08:28:11.750Z,25.70
2018-08-09T08:29:15.748Z,25.70
2018-08-09T08:30:19.836Z,25.70
2018-08-09T08:31:23.890Z,25.80
2018-08-09T08:32:27.937Z,25.80
2018-08-09T08:33:32.007Z,25.80
2018-08-09T08:34:35.979Z,25.80
2018-08-09T08:35:40.056Z,25.90
2018-08-09T08:36:44.054Z,25.90
2018-08-09T08:37:48.295Z,25.90
2018-08-09T08:38:52.341Z,26.00
2018-08-09T08:39:56.445Z,26.00
2018-08-09T08:41:00.445Z,26.00
2018-08-09T08:42:04.484Z,26.10
2018-08-09T08:43:08.477Z,26.10
2018-08-09T08:44:12.605Z,26.20
2018-08-09T08:45:16.622Z,26.20
2018-08-09T08:46:20.644Z,26.30
2018-08-09T08:47:24.720Z,26.40
2018-08-09T08:48:28.922Z,26.40
2018-08-09T08:49:33.307Z,26.40
2018-08-09T08:50:37.293Z,26.40
2018-08-09T08:51:41.270Z,26.50
2018-08-09T08:52:45.266Z,26.50
2018-08-09T08:53:49.270Z,26.60
2018-08-09T08:54:53.298Z,26.60
2018-08-09T08:55:57.311Z,26.60
2018-08-09T08:57:01.344Z,26.60
2018-08-09T08:58:05.802Z,26.60
2018-08-09T08:59:09.851Z,26.60
2018-08-09T09:00:14.138Z,26.70
2018-08-09T09:01:18.347Z,26.70
2018-08-09T09:02:22.393Z,26.80
2018-08-09T09:03:26.416Z,26.80
2018-08-09T09:04:30.503Z,26.80
2018-08-09T09:05:34.508Z,26.80
2018-08-09T09:06:38.544Z,26.80
2018-08-09T09:07:42.585Z,26.80
2018-08-09T09:08:46.596Z,26.80
2018-08-09T09:09:50.653Z,26.80
2018-08-09T09:10:57.930Z,26.80
2018-08-09T09:12:02.004Z,26.80
2018-08-09T09:13:06.250Z,26.80
2018-08-09T09:14:10.796Z,26.80
2018-08-09T09:15:15.784Z,26.90
2018-08-09T09:16:19.789Z,26.90
2018-08-09T09:17:23.776Z,26.90
2018-08-09T09:18:27.814Z,26.90
2018-08-09T09:19:31.838Z,27.00
2018-08-09T09:20:35.844Z,27.10
2018-08-09T09:21:39.869Z,27.10
2018-08-09T09:22:44.976Z,27.10
2018-08-09T09:23:49.085Z,27.20
2018-08-09T09:24:53.074Z,27.20
2018-08-09T09:25:57.097Z,27.20
2018-08-09T09:27:01.205Z,27.20
2018-08-09T09:28:05.337Z,27.20
2018-08-09T09:29:09.335Z,27.30
2018-08-09T09:30:14.636Z,27.40
2018-08-09T09:31:18.686Z,27.40
2018-08-09T09:32:22.668Z,27.40
2018-08-09T09:33:26.702Z,27.40
2018-08-09T09:34:30.832Z,27.30
2018-08-09T09:35:34.821Z,27.40
2018-08-09T09:36:38.877Z,27.40
2018-08-09T09:37:43.485Z,27.50
2018-08-09T09:38:47.521Z,27.60
2018-08-09T09:39:51.601Z,27.60
2018-08-09T09:40:55.629Z,27.60
2018-08-09T09:41:59.695Z,27.70
2018-08-09T09:43:03.741Z,27.60
2018-08-09T09:44:08.087Z,27.70
2018-08-09T09:45:12.117Z,27.70
2018-08-09T09:46:16.165Z,27.60
2018-08-09T09:47:20.379Z,27.60
2018-08-09T09:48:24.386Z,27.70
2018-08-09T09:49:28.368Z,27.70
2018-08-09T09:51:42.772Z,27.70
2018-08-09T09:52:46.754Z,27.80
2018-08-09T09:53:50.793Z,27.80
2018-08-09T09:54:54.810Z,27.80
2018-08-09T09:55:58.932Z,27.90
2018-08-09T09:57:02.926Z,27.90
2018-08-09T09:58:06.970Z,27.90
2018-08-09T09:59:11.001Z,28.00
2018-08-09T10:00:20.506Z,28.00
2018-08-09T10:01:29.821Z,28.00
2018-08-09T10:02:33.978Z,28.00
2018-08-09T10:03:38.063Z,28.10
2018-08-09T10:04:42.029Z,28.10
2018-08-09T10:05:46.012Z,28.10
2018-08-09T10:06:50.282Z,28.10
2018-08-09T10:07:54.360Z,28.10
2018-08-09T10:09:00.068Z,28.20
2018-08-09T10:10:04.403Z,28.20
2018-08-09T10:11:08.417Z,28.20
2018-08-09T10:12:12.414Z,28.20
2018-08-09T10:13:16.458Z,28.30
2018-08-09T10:14:23.154Z,28.40
2018-08-09T10:15:27.154Z,28.30
2018-08-09T10:16:31.138Z,28.20
2018-08-09T10:17:35.256Z,28.20
2018-08-09T10:18:39.275Z,28.20
2018-08-09T10:19:43.360Z,28.20
2018-08-09T10:20:47.369Z,28.30
2018-08-09T10:21:51.472Z,28.30
2018-08-09T10:22:55.468Z,28.40
2018-08-09T10:23:59.458Z,28.50
2018-08-09T10:25:03.496Z,28.50
2018-08-09T10:26:07.521Z,28.40
2018-08-09T10:27:11.519Z,28.40
2018-08-09T10:28:15.511Z,28.50
2018-08-09T10:29:19.494Z,28.50
2018-08-09T10:30:23.580Z,28.60
2018-08-09T10:31:27.643Z,28.60
2018-08-09T10:32:31.613Z,28.60
2018-08-09T10:33:35.586Z,28.60
2018-08-09T10:34:39.590Z,28.60
2018-08-09T10:35:43.562Z,28.60
2018-08-09T10:36:47.611Z,28.60
2018-08-09T10:37:51.599Z,28.80
2018-08-09T10:38:55.603Z,28.80
2018-08-09T10:39:59.694Z,29.00
2018-08-09T10:41:03.701Z,29.00
2018-08-09T10:42:07.743Z,29.10
2018-08-09T10:43:11.980Z,29.10
2018-08-09T10:44:16.010Z,29.10
2018-08-09T10:45:20.064Z,29.20
2018-08-09T10:46:24.057Z,29.20
2018-08-09T10:47:28.077Z,29.20
2018-08-09T10:48:32.078Z,29.20
2018-08-09T10:49:36.095Z,29.20
2018-08-09T10:50:40.174Z,29.10
2018-08-09T10:51:44.156Z,29.10
2018-08-09T10:52:48.253Z,29.20
2018-08-09T10:53:52.235Z,29.20
2018-08-09T10:54:56.246Z,29.20
2018-08-09T10:56:07.089Z,29.30
2018-08-09T10:57:11.072Z,29.30
2018-08-09T10:58:15.076Z,29.30
2018-08-09T10:59:19.083Z,29.20
2018-08-09T11:00:23.097Z,29.20
2018-08-09T11:01:27.068Z,29.30
2018-08-09T11:02:31.090Z,29.40
2018-08-09T11:03:35.113Z,29.30
2018-08-09T11:04:39.095Z,29.40
2018-08-09T11:05:43.145Z,29.30
2018-08-09T11:06:47.123Z,29.40
2018-08-09T11:07:51.129Z,29.30
2018-08-09T11:08:55.152Z,29.30
2018-08-09T11:09:59.153Z,29.40
2018-08-09T11:11:18.588Z,29.50
2018-08-09T11:12:22.633Z,29.50
2018-08-09T11:13:26.674Z,29.50
2018-08-09T11:14:30.642Z,29.40
2018-08-09T11:15:34.638Z,29.50
2018-08-09T11:16:38.659Z,29.50
2018-08-09T11:17:42.760Z,29.60
2018-08-09T11:18:46.724Z,29.70
2018-08-09T11:19:50.740Z,29.70
2018-08-09T11:20:54.785Z,29.80
2018-08-09T11:21:58.789Z,29.80
2018-08-09T11:23:02.786Z,29.90
2018-08-09T11:24:06.794Z,29.90
2018-08-09T11:25:10.951Z,30.10
2018-08-09T11:26:15.001Z,30.10
2018-08-09T11:27:19.030Z,30.00
2018-08-09T11:28:23.038Z,30.00
2018-08-09T11:29:27.018Z,29.90
2018-08-09T11:30:31.026Z,30.00
2018-08-09T11:31:35.098Z,30.20
2018-08-09T11:32:39.104Z,30.20
2018-08-09T11:33:43.240Z,30.20
2018-08-09T11:34:47.266Z,30.20
2018-08-09T11:35:51.273Z,30.10
2018-08-09T11:36:55.293Z,30.10
2018-08-09T11:37:59.326Z,30.10
2018-08-09T11:39:05.074Z,30.20
2018-08-09T11:40:09.166Z,30.20
2018-08-09T11:41:13.185Z,30.30
2018-08-09T11:42:17.235Z,30.30
2018-08-09T11:43:21.279Z,30.30
2018-08-09T11:44:25.309Z,30.40
2018-08-09T11:45:29.468Z,30.50
2018-08-09T11:46:33.479Z,30.60
2018-08-09T11:47:37.484Z,30.80
2018-08-09T11:48:41.543Z,30.80
2018-08-09T11:49:45.542Z,30.80
2018-08-09T11:50:49.539Z,30.80
2018-08-09T11:51:53.540Z,30.80
2018-08-09T11:52:57.521Z,30.70
2018-08-09T11:54:01.611Z,30.60
2018-08-09T11:55:05.597Z,30.60
2018-08-09T11:56:09.600Z,30.50
2018-08-09T11:57:13.617Z,30.50
2018-08-09T11:58:17.562Z,30.60
2018-08-09T11:59:21.592Z,30.70
2018-08-09T12:00:25.622Z,30.80
2018-08-09T12:01:29.670Z,30.80
2018-08-09T12:02:33.681Z,30.60
2018-08-09T12:03:37.656Z,30.60
2018-08-09T12:04:41.636Z,30.70
2018-08-09T12:05:45.625Z,30.70
2018-08-09T12:06:49.627Z,30.70
2018-08-09T12:07:53.773Z,30.80
2018-08-09T12:08:57.787Z,30.80
2018-08-09T12:10:01.775Z,30.80
2018-08-09T12:11:05.837Z,30.80
2018-08-09T12:12:09.855Z,30.90
2018-08-09T12:13:13.885Z,30.90
2018-08-09T12:14:17.876Z,30.90
2018-08-09T12:15:21.876Z,31.00
2018-08-09T12:16:25.964Z,31.00
2018-08-09T12:17:30.175Z,31.00
2018-08-09T12:18:34.342Z,31.00
2018-08-09T12:19:38.329Z,31.00
2018-08-09T12:20:42.462Z,31.00
2018-08-09T12:21:46.447Z,31.20
2018-08-09T12:22:50.571Z,31.30
2018-08-09T12:23:54.592Z,31.50
2018-08-09T12:24:58.620Z,31.50
2018-08-09T12:26:02.760Z,31.50
2018-08-09T12:27:06.842Z,31.40
2018-08-09T12:28:10.853Z,31.40
2018-08-09T12:29:14.851Z,31.50
2018-08-09T12:30:18.927Z,31.80
2018-08-09T12:31:22.902Z,31.80
2018-08-09T12:32:26.915Z,31.80
2018-08-09T12:33:30.930Z,31.90
2018-08-09T12:34:34.986Z,31.90
2018-08-09T12:35:39.040Z,31.90
2018-08-09T12:36:43.045Z,31.90
2018-08-09T12:37:47.008Z,32.00
2018-08-09T12:38:51.203Z,32.10
2018-08-09T12:39:55.222Z,32.20
2018-08-09T12:40:59.229Z,32.20
2018-08-09T12:42:03.269Z,32.20
2018-08-09T12:43:07.455Z,32.30
2018-08-09T12:44:11.726Z,32.30
2018-08-09T12:45:15.771Z,32.40
2018-08-09T12:46:19.789Z,32.40
2018-08-09T12:47:23.817Z,32.40
2018-08-09T12:48:27.831Z,32.50
2018-08-09T12:49:31.874Z,32.50
2018-08-09T12:50:35.913Z,32.40
2018-08-09T12:51:39.980Z,32.50
2018-08-09T12:52:44.754Z,32.40
2018-08-09T12:53:48.834Z,32.50
2018-08-09T12:54:52.870Z,32.60
2018-08-09T12:55:56.893Z,32.70
2018-08-09T12:57:00.930Z,32.80
2018-08-09T12:58:04.972Z,32.80
2018-08-09T12:59:09.032Z,32.90
2018-08-09T13:00:15.404Z,33.00
2018-08-09T13:01:19.407Z,33.00
2018-08-09T13:02:24.226Z,33.30
2018-08-09T13:03:28.239Z,33.40
2018-08-09T13:04:33.253Z,33.50
2018-08-09T13:05:37.424Z,33.60
2018-08-09T13:06:41.430Z,33.70
2018-08-09T13:07:45.575Z,33.80
2018-08-09T13:08:49.577Z,33.90
2018-08-09T13:09:53.612Z,33.90
2018-08-09T13:10:57.672Z,33.90
2018-08-09T13:12:01.606Z,34.00
2018-08-09T13:13:05.631Z,34.00
2018-08-09T13:14:10.613Z,34.10
2018-08-09T13:15:14.623Z,34.10
2018-08-09T13:16:18.892Z,34.20
2018-08-09T13:17:23.342Z,34.50
2018-08-09T13:18:27.331Z,34.50
2018-08-09T13:19:31.369Z,34.50
2018-08-09T13:20:35.419Z,34.60
2018-08-09T13:21:39.431Z,34.60
2018-08-09T13:22:45.407Z,34.70
2018-08-09T13:23:49.413Z,34.60
2018-08-09T13:24:53.448Z,34.60
2018-08-09T13:25:57.429Z,34.10
2018-08-09T13:27:01.661Z,33.90
2018-08-09T13:28:05.682Z,33.70
2018-08-09T13:29:09.705Z,33.40
2018-08-09T13:30:14.196Z,33.20
2018-08-09T13:31:18.191Z,33.00
2018-08-09T13:32:22.219Z,32.80
2018-08-09T13:33:26.234Z,32.80
2018-08-09T13:34:30.260Z,32.90
2018-08-09T13:35:34.402Z,33.00
2018-08-09T13:36:38.405Z,33.30
2018-08-09T13:37:42.409Z,33.60
2018-08-09T13:38:46.424Z,33.70
2018-08-09T13:39:50.428Z,34.00
2018-08-09T13:40:54.435Z,34.20
2018-08-09T13:41:58.489Z,34.40
2018-08-09T13:43:02.474Z,34.60
2018-08-09T13:44:06.502Z,34.80
2018-08-09T13:45:13.126Z,34.90
2018-08-09T13:46:17.172Z,35.10
2018-08-09T13:47:21.256Z,34.70